Csl Argosy — C6UZ9 — position and weather

sailwx.info

Track history (hours):
 
Tides and Currents Weather Stations Pressure Air Temp Water Temp Dewpoint Dewpoint Depression Visibility Wind Speed Wind Dir Waves Ship Positions

Csl Argosy

Last reported at 2017-Dec-12 04:32 UTC. Time now 2017-Dec-18 05:19 UTC.
Position N 36°49' W 075°47'.

Length 244 m; draft 11.8 m.

Type: Cargo ship. MMSI: 308299000.

Date/timePositionNaut miles runAvg speedWind from/ knotsBaromVisibWave heightAir tempDewpointWater temp
2017-Dec-12 04:32N 36°49' W 075°47'3 8.8
2017-Dec-12 04:13N 36°51' W 075°50'2 8.9
2017-Dec-12 04:01N 36°52' W 075°52'5 9.0
2017-Dec-12 03:30N 36°55' W 075°56'4 8.0
2017-Dec-12 03:00N 36°58' W 075°59'510.3
2017-Dec-12 02:31N 37°02' W 076°03'712.1
2017-Dec-12 01:55N 37°08' W 076°08'5210.5
2017-Dec-11 20:58N 37°59' W 076°12'4811.6
2017-Dec-11 16:49N 38°47' W 076°25'311.4
2017-Dec-11 16:30N 38°50' W 076°24'611.4
2017-Dec-11 16:00N 38°56' W 076°23'510.6
2017-Dec-11 15:31N 39°01' W 076°22'5 9.9
2017-Dec-11 15:01N 39°06' W 076°24'5 9.8
2017-Dec-11 14:30N 39°10' W 076°26'5 9.6
2017-Dec-11 14:01N 39°13' W 076°31'3 6.2
2017-Dec-11 13:28N 39°15' W 076°34'0 0.4
2017-Dec-11 12:58N 39°15' W 076°34'0 0.0
2017-Dec-11 12:28N 39°15' W 076°34'0 0.0
2017-Dec-11 11:58N 39°15' W 076°34'0 0.0
2017-Dec-11 11:28N 39°15' W 076°34'0 0.0
2017-Dec-11 10:58N 39°15' W 076°34'0 0.0
2017-Dec-11 10:28N 39°15' W 076°34'0 0.0
2017-Dec-11 09:58N 39°15' W 076°34'0 0.0
2017-Dec-11 09:28N 39°15' W 076°34'0 0.0
2017-Dec-11 08:58N 39°15' W 076°34'0 0.0
2017-Dec-11 08:28N 39°15' W 076°34'0 0.0
2017-Dec-11 07:58N 39°15' W 076°34'0 0.0
2017-Dec-11 07:28N 39°15' W 076°34'0 0.0
2017-Dec-11 06:58N 39°15' W 076°34'0 0.0
2017-Dec-11 06:28N 39°15' W 076°34'0 0.0
2017-Dec-11 05:58N 39°15' W 076°34'0 0.0
2017-Dec-11 05:28N 39°15' W 076°34'0 0.0
2017-Dec-11 04:58N 39°15' W 076°34'0 0.0
2017-Dec-11 04:25N 39°15' W 076°34'0 0.0
2017-Dec-11 03:58N 39°15' W 076°34'0 0.0
2017-Dec-11 03:28N 39°15' W 076°34'0 0.0
2017-Dec-11 02:58N 39°15' W 076°34'0 0.0
2017-Dec-11 02:28N 39°15' W 076°34'0 0.0
2017-Dec-11 01:58N 39°15' W 076°34'0 0.0
2017-Dec-11 01:28N 39°15' W 076°34'0 0.0
2017-Dec-11 00:58N 39°15' W 076°34'0 0.0
2017-Dec-11 00:28N 39°15' W 076°34'0 0.0
2017-Dec-10 23:58N 39°15' W 076°34'0 0.0
2017-Dec-10 23:28N 39°15' W 076°34'0 0.0
2017-Dec-10 22:58N 39°15' W 076°34'0 0.0
2017-Dec-10 22:28N 39°15' W 076°34'0 0.0
2017-Dec-10 21:58N 39°15' W 076°34'0 0.0
2017-Dec-10 21:28N 39°15' W 076°34'0 0.0
2017-Dec-10 20:58N 39°15' W 076°34'0 0.0
2017-Dec-10 20:28N 39°15' W 076°34'0 0.0
2017-Dec-10 19:58N 39°15' W 076°34'0 0.0
2017-Dec-10 19:28N 39°15' W 076°34'0 0.0
2017-Dec-10 18:58N 39°15' W 076°34'0 0.0
2017-Dec-10 18:28N 39°15' W 076°34'0 0.0
2017-Dec-10 17:58N 39°15' W 076°34'0 0.0
2017-Dec-10 17:28N 39°15' W 076°34'0 0.0
2017-Dec-10 16:58N 39°15' W 076°34'0 0.0
2017-Dec-10 16:28N 39°15' W 076°34'0 0.0
2017-Dec-10 15:58N 39°15' W 076°34'0 0.0
2017-Dec-10 15:28N 39°15' W 076°34'0 0.0
2017-Dec-10 14:58N 39°15' W 076°34'0 0.0
2017-Dec-10 14:28N 39°15' W 076°34'0 0.0
2017-Dec-10 13:58N 39°15' W 076°34'0 0.0
2017-Dec-10 13:28N 39°15' W 076°34'0 0.0
2017-Dec-10 12:58N 39°15' W 076°34'0 0.0
2017-Dec-10 12:28N 39°15' W 076°34'0 0.0
2017-Dec-10 11:58N 39°15' W 076°34'0 0.0
2017-Dec-10 11:28N 39°15' W 076°34'0 0.0
2017-Dec-10 10:58N 39°15' W 076°34'0 0.0
2017-Dec-10 10:28N 39°15' W 076°34'0 0.0
2017-Dec-10 09:58N 39°15' W 076°34'0 0.0
2017-Dec-10 09:28N 39°15' W 076°34'0 0.0
2017-Dec-10 08:58N 39°15' W 076°34'0 0.0
2017-Dec-10 08:28N 39°15' W 076°34'0 0.0
2017-Dec-10 07:58N 39°15' W 076°34'0 0.0
2017-Dec-10 07:28N 39°15' W 076°34'0 0.0
2017-Dec-10 06:58N 39°15' W 076°34'0 0.0
2017-Dec-10 06:28N 39°15' W 076°34'0 0.0
2017-Dec-10 05:58N 39°15' W 076°34'1 1.3
2017-Dec-10 05:30N 39°15' W 076°34'1 1.4
2017-Dec-10 05:00N 39°15' W 076°33'0 0.0
2017-Dec-10 04:30N 39°15' W 076°33'0 0.0
2017-Dec-10 04:00N 39°15' W 076°33'0 0.0
2017-Dec-10 03:30N 39°15' W 076°33'0 0.0
2017-Dec-10 03:00N 39°15' W 076°33'0 0.2
2017-Dec-10 02:30N 39°15' W 076°33'2 4.6
2017-Dec-10 02:00N 39°13' W 076°31'5 9.6
2017-Dec-10 01:30N 39°10' W 076°26'510.6
2017-Dec-10 01:00N 39°05' W 076°24'611.4
2017-Dec-10 00:30N 38°60' W 076°23'611.9
2017-Dec-10 00:00N 38°54' W 076°24'612.1
2017-Dec-09 23:30N 38°48' W 076°26'5111.7
2017-Dec-09 19:11N 37°59' W 076°12'211.4
2017-Dec-09 19:00N 37°57' W 076°11'4810.4
2017-Dec-09 14:20N 37°08' W 076°09'410.9
2017-Dec-09 13:58N 37°05' W 076°06'510.5
2017-Dec-09 13:30N 37°01' W 076°03'510.1
2017-Dec-09 13:00N 36°57' W 075°58'4 7.4
2017-Dec-09 12:30N 36°55' W 075°55'3 6.9
2017-Dec-09 12:00N 36°53' W 075°51'  
Track history (hours):
 
Tides and Currents Weather Stations Pressure Air Temp Water Temp Dewpoint Dewpoint Depression Visibility Wind Speed Wind Dir Waves Ship Positions

Csl Argosy

Last reported at 2017-Dec-12 04:32 UTC. Time now 2017-Dec-18 05:19 UTC.
Position N 36°49' W 075°47'.

Length 244 m; draft 11.8 m.

Type: Cargo ship. MMSI: 308299000.

Date/timePositionNaut miles runAvg speedWind from/ knotsBaromVisibWave heightAir tempDewpointWater temp
2017-Dec-12 04:32N 36°49' W 075°47'3 8.8
2017-Dec-12 04:13N 36°51' W 075°50'2 8.9
2017-Dec-12 04:01N 36°52' W 075°52'5 9.0
2017-Dec-12 03:30N 36°55' W 075°56'4 8.0
2017-Dec-12 03:00N 36°58' W 075°59'510.3
2017-Dec-12 02:31N 37°02' W 076°03'712.1
2017-Dec-12 01:55N 37°08' W 076°08'5210.5
2017-Dec-11 20:58N 37°59' W 076°12'4811.6
2017-Dec-11 16:49N 38°47' W 076°25'311.4
2017-Dec-11 16:30N 38°50' W 076°24'611.4
2017-Dec-11 16:00N 38°56' W 076°23'510.6
2017-Dec-11 15:31N 39°01' W 076°22'5 9.9
2017-Dec-11 15:01N 39°06' W 076°24'5 9.8
2017-Dec-11 14:30N 39°10' W 076°26'5 9.6
2017-Dec-11 14:01N 39°13' W 076°31'3 6.2
2017-Dec-11 13:28N 39°15' W 076°34'0 0.4
2017-Dec-11 12:58N 39°15' W 076°34'0 0.0
2017-Dec-11 12:28N 39°15' W 076°34'0 0.0
2017-Dec-11 11:58N 39°15' W 076°34'0 0.0
2017-Dec-11 11:28N 39°15' W 076°34'0 0.0
2017-Dec-11 10:58N 39°15' W 076°34'0 0.0
2017-Dec-11 10:28N 39°15' W 076°34'0 0.0
2017-Dec-11 09:58N 39°15' W 076°34'0 0.0
2017-Dec-11 09:28N 39°15' W 076°34'0 0.0
2017-Dec-11 08:58N 39°15' W 076°34'0 0.0
2017-Dec-11 08:28N 39°15' W 076°34'0 0.0
2017-Dec-11 07:58N 39°15' W 076°34'0 0.0
2017-Dec-11 07:28N 39°15' W 076°34'0 0.0
2017-Dec-11 06:58N 39°15' W 076°34'0 0.0
2017-Dec-11 06:28N 39°15' W 076°34'0 0.0
2017-Dec-11 05:58N 39°15' W 076°34'0 0.0
2017-Dec-11 05:28N 39°15' W 076°34'0 0.0
2017-Dec-11 04:58N 39°15' W 076°34'0 0.0
2017-Dec-11 04:25N 39°15' W 076°34'0 0.0
2017-Dec-11 03:58N 39°15' W 076°34'0 0.0
2017-Dec-11 03:28N 39°15' W 076°34'0 0.0
2017-Dec-11 02:58N 39°15' W 076°34'0 0.0
2017-Dec-11 02:28N 39°15' W 076°34'0 0.0
2017-Dec-11 01:58N 39°15' W 076°34'0 0.0
2017-Dec-11 01:28N 39°15' W 076°34'0 0.0
2017-Dec-11 00:58N 39°15' W 076°34'0 0.0
2017-Dec-11 00:28N 39°15' W 076°34'0 0.0
2017-Dec-10 23:58N 39°15' W 076°34'0 0.0
2017-Dec-10 23:28N 39°15' W 076°34'0 0.0
2017-Dec-10 22:58N 39°15' W 076°34'0 0.0
2017-Dec-10 22:28N 39°15' W 076°34'0 0.0
2017-Dec-10 21:58N 39°15' W 076°34'0 0.0
2017-Dec-10 21:28N 39°15' W 076°34'0 0.0
2017-Dec-10 20:58N 39°15' W 076°34'0 0.0
2017-Dec-10 20:28N 39°15' W 076°34'0 0.0
2017-Dec-10 19:58N 39°15' W 076°34'0 0.0
2017-Dec-10 19:28N 39°15' W 076°34'0 0.0
2017-Dec-10 18:58N 39°15' W 076°34'0 0.0
2017-Dec-10 18:28N 39°15' W 076°34'0 0.0
2017-Dec-10 17:58N 39°15' W 076°34'0 0.0
2017-Dec-10 17:28N 39°15' W 076°34'0 0.0
2017-Dec-10 16:58N 39°15' W 076°34'0 0.0
2017-Dec-10 16:28N 39°15' W 076°34'0 0.0
2017-Dec-10 15:58N 39°15' W 076°34'0 0.0
2017-Dec-10 15:28N 39°15' W 076°34'0 0.0
2017-Dec-10 14:58N 39°15' W 076°34'0 0.0
2017-Dec-10 14:28N 39°15' W 076°34'0 0.0
2017-Dec-10 13:58N 39°15' W 076°34'0 0.0
2017-Dec-10 13:28N 39°15' W 076°34'0 0.0
2017-Dec-10 12:58N 39°15' W 076°34'0 0.0
2017-Dec-10 12:28N 39°15' W 076°34'0 0.0
2017-Dec-10 11:58N 39°15' W 076°34'0 0.0
2017-Dec-10 11:28N 39°15' W 076°34'0 0.0
2017-Dec-10 10:58N 39°15' W 076°34'0 0.0
2017-Dec-10 10:28N 39°15' W 076°34'0 0.0
2017-Dec-10 09:58N 39°15' W 076°34'0 0.0
2017-Dec-10 09:28N 39°15' W 076°34'0 0.0
2017-Dec-10 08:58N 39°15' W 076°34'0 0.0
2017-Dec-10 08:28N 39°15' W 076°34'0 0.0
2017-Dec-10 07:58N 39°15' W 076°34'0 0.0
2017-Dec-10 07:28N 39°15' W 076°34'0 0.0
2017-Dec-10 06:58N 39°15' W 076°34'0 0.0
2017-Dec-10 06:28N 39°15' W 076°34'0 0.0
2017-Dec-10 05:58N 39°15' W 076°34'1 1.3
2017-Dec-10 05:30N 39°15' W 076°34'1 1.4
2017-Dec-10 05:00N 39°15' W 076°33'0 0.0
2017-Dec-10 04:30N 39°15' W 076°33'0 0.0
2017-Dec-10 04:00N 39°15' W 076°33'0 0.0
2017-Dec-10 03:30N 39°15' W 076°33'0 0.0
2017-Dec-10 03:00N 39°15' W 076°33'0 0.2
2017-Dec-10 02:30N 39°15' W 076°33'2 4.6
2017-Dec-10 02:00N 39°13' W 076°31'5 9.6
2017-Dec-10 01:30N 39°10' W 076°26'510.6
2017-Dec-10 01:00N 39°05' W 076°24'611.4
2017-Dec-10 00:30N 38°60' W 076°23'611.9
2017-Dec-10 00:00N 38°54' W 076°24'612.1
2017-Dec-09 23:30N 38°48' W 076°26'5111.7
2017-Dec-09 19:11N 37°59' W 076°12'211.4
2017-Dec-09 19:00N 37°57' W 076°11'4810.4
2017-Dec-09 14:20N 37°08' W 076°09'410.9
2017-Dec-09 13:58N 37°05' W 076°06'510.5
2017-Dec-09 13:30N 37°01' W 076°03'510.1
2017-Dec-09 13:00N 36°57' W 075°58'4 7.4
2017-Dec-09 12:30N 36°55' W 075°55'3 6.9
2017-Dec-09 12:00N 36°53' W 075°51'  

Dump ship's entire track history